createdAt,value
2023-05-10T00:02:49.191Z,61.98
2023-05-10T00:05:51.627Z,62.53
2023-05-10T00:08:53.958Z,62.44
2023-05-10T00:11:56.305Z,62.62
2023-05-10T00:14:58.624Z,62.66
2023-05-10T00:18:00.981Z,62.79
2023-05-10T00:21:03.409Z,63.05
2023-05-10T00:24:05.907Z,63.43
2023-05-10T00:27:08.212Z,63.99
2023-05-10T00:30:10.763Z,64.22
2023-05-10T00:33:13.505Z,64.37
2023-05-10T00:36:15.940Z,64.24
2023-05-10T00:39:18.281Z,64.50
2023-05-10T00:42:20.577Z,64.21
2023-05-10T00:45:23.162Z,64.15
2023-05-10T00:48:26.637Z,65.19
2023-05-10T00:51:28.983Z,64.79
2023-05-10T00:54:31.341Z,64.74
2023-05-10T00:57:33.639Z,64.96
2023-05-10T01:00:35.955Z,64.88
2023-05-10T01:03:38.390Z,64.64
2023-05-10T01:06:41.416Z,64.55
2023-05-10T01:09:43.712Z,64.17
2023-05-10T01:12:48.187Z,64.37
2023-05-10T01:15:51.036Z,64.56
2023-05-10T01:18:53.379Z,64.92
2023-05-10T01:22:04.280Z,64.43
2023-05-10T01:25:09.631Z,64.53
2023-05-10T01:28:36.549Z,64.73
2023-05-10T01:32:03.261Z,65.50
2023-05-10T01:35:16.748Z,65.82
2023-05-10T01:38:27.037Z,65.89
2023-05-10T01:41:42.105Z,66.16
2023-05-10T01:44:50.772Z,66.06
2023-05-10T01:47:59.548Z,66.32
2023-05-10T01:51:02.230Z,66.65
2023-05-10T01:54:04.608Z,66.73
2023-05-10T01:57:08.483Z,66.87
2023-05-10T02:00:11.740Z,67.12
2023-05-10T02:03:17.070Z,67.60
2023-05-10T02:06:19.988Z,67.22
2023-05-10T02:09:22.323Z,67.10
2023-05-10T02:12:26.575Z,67.55
2023-05-10T02:15:28.905Z,67.32
2023-05-10T02:18:31.472Z,67.39
2023-05-10T02:21:33.902Z,67.69
2023-05-10T02:24:36.376Z,67.97
2023-05-10T02:27:38.789Z,68.26
2023-05-10T02:30:41.185Z,68.26
2023-05-10T02:33:43.501Z,68.32
2023-05-10T02:36:45.912Z,68.25
2023-05-10T02:39:49.042Z,68.15
2023-05-10T02:42:52.701Z,68.03
2023-05-10T02:45:55.101Z,68.06
2023-05-10T02:48:57.436Z,67.98
2023-05-10T02:52:02.186Z,67.87
2023-05-10T02:55:05.113Z,67.74
2023-05-10T02:58:07.834Z,67.79
2023-05-10T03:01:10.735Z,67.41
2023-05-10T03:04:13.146Z,67.39
2023-05-10T03:07:15.567Z,67.57
2023-05-10T03:10:18.428Z,67.53
2023-05-10T03:13:42.144Z,67.62
2023-05-10T03:16:48.284Z,67.56
2023-05-10T03:19:54.824Z,67.47
2023-05-10T03:23:22.113Z,67.99
2023-05-10T03:26:28.280Z,68.02
2023-05-10T03:29:39.425Z,67.70
2023-05-10T03:32:41.820Z,67.68
2023-05-10T03:35:46.771Z,67.89
2023-05-10T03:38:50.471Z,67.89
2023-05-10T03:41:53.364Z,68.17
2023-05-10T03:44:55.805Z,67.94
2023-05-10T03:47:58.949Z,68.02
2023-05-10T03:51:01.795Z,68.01
2023-05-10T03:54:04.286Z,68.06
2023-05-10T03:57:06.844Z,68.01
2023-05-10T04:00:09.968Z,67.93
2023-05-10T04:03:18.801Z,67.86
2023-05-10T04:06:21.388Z,68.60
2023-05-10T04:09:23.820Z,68.13
2023-05-10T04:12:26.225Z,65.74
2023-05-10T04:15:28.541Z,62.86
2023-05-10T04:18:31.328Z,60.09
2023-05-10T04:21:33.640Z,60.20
2023-05-10T04:24:35.971Z,60.05
2023-05-10T04:27:38.317Z,59.17
2023-05-10T04:30:41.582Z,60.37
2023-05-10T04:33:43.943Z,61.74
2023-05-10T04:36:46.277Z,63.08
2023-05-10T04:39:48.669Z,64.03
2023-05-10T04:42:50.991Z,64.99
2023-05-10T04:45:53.395Z,65.24
2023-05-10T04:48:55.768Z,66.18
2023-05-10T04:51:58.055Z,66.36
2023-05-10T04:55:00.386Z,66.66
2023-05-10T04:58:03.890Z,66.96
2023-05-10T05:01:10.486Z,67.00
2023-05-10T05:04:12.864Z,66.87
2023-05-10T05:07:15.242Z,67.37
2023-05-10T05:10:17.741Z,67.20
2023-05-10T05:13:20.437Z,67.07
2023-05-10T05:16:22.896Z,66.67
2023-05-10T05:19:25.415Z,67.09
2023-05-10T05:22:30.255Z,67.03
2023-05-10T05:25:32.656Z,67.54
2023-05-10T05:28:38.145Z,66.22
2023-05-10T05:31:40.617Z,66.48
2023-05-10T05:34:43.004Z,66.54
2023-05-10T05:37:45.379Z,66.91
2023-05-10T05:40:47.734Z,66.15
2023-05-10T05:43:50.069Z,66.43
2023-05-10T05:46:52.432Z,67.09
2023-05-10T05:49:54.778Z,66.33
2023-05-10T05:52:58.283Z,65.08
2023-05-10T05:56:00.655Z,65.24
2023-05-10T05:59:03.042Z,65.41
2023-05-10T06:02:05.420Z,64.87
2023-05-10T06:05:08.798Z,64.97
2023-05-10T06:08:11.278Z,63.49
2023-05-10T06:11:13.596Z,63.70
2023-05-10T06:14:15.888Z,63.13
2023-05-10T06:17:18.158Z,63.46
2023-05-10T06:20:20.498Z,63.81
2023-05-10T06:23:23.622Z,64.00
2023-05-10T06:26:25.934Z,63.13
2023-05-10T06:29:28.275Z,62.29
2023-05-10T06:32:30.732Z,62.63
2023-05-10T06:35:34.569Z,61.98
2023-05-10T06:38:37.104Z,61.36
2023-05-10T06:41:39.473Z,61.68
2023-05-10T06:44:41.807Z,61.93
2023-05-10T06:47:44.237Z,61.27
2023-05-10T06:50:46.566Z,60.81
2023-05-10T06:53:48.865Z,60.93
2023-05-10T06:56:51.230Z,60.73
2023-05-10T06:59:53.565Z,61.34
2023-05-10T07:02:56.153Z,61.53
2023-05-10T07:06:04.931Z,60.51
2023-05-10T07:09:08.703Z,60.00
2023-05-10T07:12:13.451Z,59.79
2023-05-10T07:15:17.846Z,58.97
2023-05-10T07:18:20.476Z,58.91
2023-05-10T07:21:25.094Z,57.75
2023-05-10T07:24:27.528Z,58.19
2023-05-10T07:27:29.843Z,57.80
2023-05-10T07:30:32.257Z,57.83
2023-05-10T07:33:34.599Z,56.15
2023-05-10T07:36:36.919Z,56.90
2023-05-10T07:39:39.236Z,56.61
2023-05-10T07:42:41.520Z,57.82
2023-05-10T07:45:44.316Z,58.15
2023-05-10T07:48:46.885Z,57.07
2023-05-10T07:51:49.519Z,57.36
2023-05-10T07:54:51.941Z,56.52
2023-05-10T07:57:54.282Z,55.90
2023-05-10T08:00:57.495Z,55.15
2023-05-10T08:03:59.835Z,55.49
2023-05-10T08:07:02.320Z,55.24
2023-05-10T08:10:04.976Z,54.72
2023-05-10T08:13:07.258Z,54.07
2023-05-10T08:16:09.648Z,55.04
2023-05-10T08:19:12.102Z,53.87
2023-05-10T08:22:14.477Z,53.90
2023-05-10T08:25:17.271Z,54.73
2023-05-10T08:28:19.714Z,54.86
2023-05-10T08:31:22.217Z,54.01
2023-05-10T08:34:25.022Z,54.19
2023-05-10T08:37:27.560Z,52.25
2023-05-10T08:40:29.960Z,53.77
2023-05-10T08:43:32.524Z,53.75
2023-05-10T08:46:36.535Z,52.30
2023-05-10T08:49:38.910Z,52.60
2023-05-10T08:52:41.331Z,51.71
2023-05-10T08:55:43.887Z,51.73
2023-05-10T08:58:46.221Z,50.64
2023-05-10T09:01:50.402Z,50.27
2023-05-10T09:04:52.951Z,50.12
2023-05-10T09:07:55.310Z,50.05
2023-05-10T09:10:57.670Z,50.19
2023-05-10T09:14:00.018Z,50.79
2023-05-10T09:17:02.445Z,50.94
2023-05-10T09:20:05.381Z,50.14
2023-05-10T09:23:07.993Z,49.32
2023-05-10T09:26:10.275Z,49.54
2023-05-10T09:29:13.418Z,48.22
2023-05-10T09:32:17.032Z,49.20
2023-05-10T09:35:25.036Z,47.13
2023-05-10T09:38:28.269Z,46.56
2023-05-10T09:41:30.672Z,45.95
2023-05-10T09:44:34.003Z,45.92
2023-05-10T09:47:37.038Z,45.38
2023-05-10T09:50:39.888Z,45.30
2023-05-10T09:53:42.220Z,46.96
2023-05-10T09:56:44.560Z,45.84
2023-05-10T09:59:46.889Z,45.39
2023-05-10T10:02:59.441Z,45.52
2023-05-10T10:06:01.991Z,44.83
2023-05-10T10:09:04.647Z,44.85
2023-05-10T10:12:07.186Z,44.51
2023-05-10T10:15:10.277Z,45.17
2023-05-10T10:18:18.329Z,45.37
2023-05-10T10:21:21.400Z,44.59
2023-05-10T10:24:24.920Z,44.80
2023-05-10T10:27:38.164Z,43.84
2023-05-10T10:30:44.971Z,43.97
2023-05-10T10:34:17.305Z,42.46
2023-05-10T10:37:19.613Z,41.39
2023-05-10T10:40:30.877Z,42.98
2023-05-10T10:43:35.039Z,43.49
2023-05-10T10:46:37.687Z,43.49
2023-05-10T10:49:43.654Z,43.42
2023-05-10T10:52:46.540Z,43.00
2023-05-10T10:55:49.298Z,42.79
2023-05-10T10:58:54.713Z,43.89
2023-05-10T11:01:57.165Z,43.13
2023-05-10T11:04:59.559Z,42.58
2023-05-10T11:08:07.480Z,41.53
2023-05-10T11:11:10.150Z,41.48
2023-05-10T11:14:12.469Z,39.91
2023-05-10T11:17:28.094Z,40.03
2023-05-10T11:20:34.498Z,38.26
2023-05-10T11:23:49.695Z,38.09
2023-05-10T11:26:55.179Z,38.48
2023-05-10T11:29:57.490Z,39.17
2023-05-10T11:32:59.877Z,37.27
2023-05-10T11:36:02.275Z,38.79
2023-05-10T11:39:05.074Z,39.62
2023-05-10T11:42:10.215Z,40.93
2023-05-10T11:45:12.552Z,40.16
2023-05-10T11:48:14.918Z,38.36
2023-05-10T11:51:23.693Z,37.58
2023-05-10T11:54:26.116Z,38.75
2023-05-10T11:57:29.593Z,38.74
2023-05-10T12:00:32.152Z,37.28
2023-05-10T12:03:35.039Z,36.72
2023-05-10T12:06:39.775Z,35.13
2023-05-10T12:09:46.066Z,33.66
2023-05-10T12:12:51.217Z,32.80
2023-05-10T12:15:53.556Z,32.95
2023-05-10T12:18:58.316Z,34.62
2023-05-10T12:22:01.133Z,35.65
2023-05-10T12:25:03.802Z,34.79
2023-05-10T12:28:08.207Z,34.39
2023-05-10T12:31:10.585Z,33.61
2023-05-10T12:34:12.911Z,35.80
2023-05-10T12:37:15.250Z,34.39
2023-05-10T12:40:18.041Z,31.74
2023-05-10T12:43:20.550Z,34.65
2023-05-10T12:46:26.345Z,34.56
2023-05-10T12:49:28.825Z,33.96
2023-05-10T12:52:32.649Z,33.75
2023-05-10T12:55:34.960Z,35.25
2023-05-10T12:58:37.290Z,36.97
2023-05-10T13:01:39.753Z,35.56
2023-05-10T13:04:43.014Z,33.51
2023-05-10T13:07:45.522Z,33.91
2023-05-10T13:10:47.854Z,33.03
2023-05-10T13:13:50.229Z,32.84
2023-05-10T13:16:52.536Z,34.25
2023-05-10T13:19:54.837Z,33.71
2023-05-10T13:22:57.197Z,33.45
2023-05-10T13:25:59.571Z,33.20
2023-05-10T13:29:01.913Z,33.35
2023-05-10T13:32:04.355Z,33.92
2023-05-10T13:35:07.715Z,32.15
2023-05-10T13:38:10.423Z,31.67
2023-05-10T13:41:12.721Z,32.56
2023-05-10T13:44:17.778Z,32.92
2023-05-10T13:47:20.124Z,32.98
2023-05-10T13:50:22.401Z,32.91
2023-05-10T13:53:24.762Z,33.06
2023-05-10T13:56:27.155Z,33.01
2023-05-10T13:59:29.815Z,33.70
2023-05-10T14:02:32.466Z,33.33
2023-05-10T14:05:34.870Z,33.65
2023-05-10T14:08:37.577Z,33.92
2023-05-10T14:11:44.062Z,33.95
2023-05-10T14:14:46.587Z,32.78
2023-05-10T14:17:49.197Z,33.29
2023-05-10T14:20:51.550Z,32.77
2023-05-10T14:23:53.852Z,32.68
2023-05-10T14:26:56.173Z,33.20
2023-05-10T14:29:58.472Z,33.02
2023-05-10T14:33:03.349Z,32.74
2023-05-10T14:36:06.084Z,33.20
2023-05-10T14:39:09.051Z,33.23
2023-05-10T14:42:11.643Z,32.92
2023-05-10T14:45:14.065Z,32.86
2023-05-10T14:48:18.523Z,32.75
2023-05-10T14:51:22.822Z,33.84
2023-05-10T14:54:25.182Z,34.71
2023-05-10T14:57:30.563Z,35.19
2023-05-10T15:00:32.969Z,34.98
2023-05-10T15:03:36.053Z,33.84
2023-05-10T15:06:39.253Z,34.62
2023-05-10T15:09:41.556Z,34.65
2023-05-10T15:12:43.889Z,33.92
2023-05-10T15:15:46.212Z,34.50
2023-05-10T15:18:49.421Z,34.79
2023-05-10T15:21:51.804Z,34.33
2023-05-10T15:24:54.123Z,34.63
2023-05-10T15:27:56.560Z,34.90
2023-05-10T15:31:01.358Z,35.83
2023-05-10T15:34:04.490Z,35.63
2023-05-10T15:37:07.248Z,35.59
2023-05-10T15:40:09.967Z,35.99
2023-05-10T15:43:12.503Z,35.53
2023-05-10T15:46:15.046Z,36.01
2023-05-10T15:49:18.826Z,35.85
2023-05-10T15:52:21.685Z,35.76
2023-05-10T15:55:24.036Z,36.14
2023-05-10T15:58:26.336Z,35.00
2023-05-10T16:01:28.751Z,35.29
2023-05-10T16:04:31.083Z,35.99
2023-05-10T16:07:33.988Z,36.15
2023-05-10T16:10:36.905Z,36.97
2023-05-10T16:13:39.249Z,37.07
2023-05-10T16:16:41.918Z,37.50
2023-05-10T16:19:44.333Z,37.92
2023-05-10T16:22:46.642Z,37.37
2023-05-10T16:25:48.968Z,37.44
2023-05-10T16:28:51.330Z,37.39
2023-05-10T16:31:54.049Z,38.07
2023-05-10T16:34:56.413Z,38.63
2023-05-10T16:37:58.749Z,38.92
2023-05-10T16:41:03.983Z,38.67
2023-05-10T16:44:06.348Z,38.39
2023-05-10T16:47:08.673Z,38.99
2023-05-10T16:50:11.567Z,39.43
2023-05-10T16:53:14.155Z,39.13
2023-05-10T16:56:18.387Z,39.97
2023-05-10T16:59:20.897Z,39.00
2023-05-10T17:02:23.593Z,39.16
2023-05-10T17:05:26.271Z,39.24
2023-05-10T17:08:28.624Z,39.91
2023-05-10T17:11:31.299Z,39.77
2023-05-10T17:14:33.587Z,40.10
2023-05-10T17:17:36.164Z,40.51
2023-05-10T17:20:38.472Z,40.72
2023-05-10T17:23:40.884Z,40.67
2023-05-10T17:26:43.311Z,41.06
2023-05-10T17:29:45.773Z,40.44
2023-05-10T17:32:48.124Z,41.19
2023-05-10T17:35:50.612Z,41.50
2023-05-10T17:38:53.000Z,41.87
2023-05-10T17:41:55.353Z,41.89
2023-05-10T17:44:57.751Z,42.02
2023-05-10T17:48:00.016Z,42.93
2023-05-10T17:51:02.721Z,42.65
2023-05-10T17:54:05.112Z,42.91
2023-05-10T17:57:07.634Z,43.23
2023-05-10T18:00:10.508Z,43.14
2023-05-10T18:03:12.770Z,43.34
2023-05-10T18:06:15.094Z,43.59
2023-05-10T18:09:18.189Z,43.92
2023-05-10T18:12:20.505Z,43.81
2023-05-10T18:15:23.111Z,44.03
2023-05-10T18:18:25.584Z,44.11
2023-05-10T18:21:27.976Z,44.59
2023-05-10T18:24:39.425Z,44.56
2023-05-10T18:27:42.469Z,44.85
2023-05-10T18:30:45.053Z,44.99
2023-05-10T18:33:47.363Z,44.66
2023-05-10T18:36:49.703Z,45.14
2023-05-10T18:39:52.052Z,45.49
2023-05-10T18:42:54.408Z,45.69
2023-05-10T18:45:57.358Z,46.20
2023-05-10T18:48:59.709Z,46.18
2023-05-10T18:52:02.095Z,46.45
2023-05-10T18:55:04.799Z,46.79
2023-05-10T18:58:07.116Z,46.67
2023-05-10T19:01:09.487Z,46.58
2023-05-10T19:04:11.824Z,46.73
2023-05-10T19:07:14.205Z,46.81
2023-05-10T19:10:16.574Z,46.71
2023-05-10T19:13:19.039Z,47.20
2023-05-10T19:16:24.089Z,47.05
2023-05-10T19:19:27.527Z,47.42
2023-05-10T19:25:35.440Z,48.34
2023-05-10T19:28:37.952Z,48.53
2023-05-10T19:31:40.466Z,49.09
2023-05-10T19:34:43.065Z,49.05
2023-05-10T19:37:47.262Z,49.49
2023-05-10T19:40:59.411Z,48.90
2023-05-10T19:44:01.970Z,49.24
2023-05-10T19:47:05.365Z,49.17
2023-05-10T19:50:08.233Z,48.99
2023-05-10T19:53:10.850Z,48.95
2023-05-10T19:56:13.326Z,49.18
2023-05-10T19:59:15.648Z,48.68
2023-05-10T20:02:18.297Z,48.84
2023-05-10T20:05:21.235Z,49.33
2023-05-10T20:08:23.551Z,48.87
2023-05-10T20:11:25.889Z,49.00
2023-05-10T20:14:28.196Z,48.80
2023-05-10T20:17:30.551Z,48.87
2023-05-10T20:20:32.967Z,48.90
2023-05-10T20:23:35.347Z,48.95
2023-05-10T20:26:39.818Z,49.14
2023-05-10T20:29:42.188Z,49.34
2023-05-10T20:32:44.616Z,49.59
2023-05-10T20:35:47.000Z,49.68
2023-05-10T20:38:49.299Z,49.74
2023-05-10T20:41:52.489Z,49.81
2023-05-10T20:44:54.842Z,50.11
2023-05-10T20:47:57.741Z,50.03
2023-05-10T20:51:03.207Z,49.94
2023-05-10T20:54:05.754Z,50.05
2023-05-10T20:57:08.170Z,50.54
2023-05-10T21:00:10.964Z,50.95
2023-05-10T21:03:14.348Z,50.96
2023-05-10T21:06:16.672Z,51.24
2023-05-10T21:09:18.996Z,51.50
2023-05-10T21:12:21.307Z,51.66
2023-05-10T21:15:24.516Z,52.01
2023-05-10T21:18:26.878Z,52.32
2023-05-10T21:21:29.433Z,52.26
2023-05-10T21:24:31.814Z,52.30
2023-05-10T21:27:34.932Z,52.21
2023-05-10T21:30:37.272Z,52.25
2023-05-10T21:33:39.672Z,52.52
2023-05-10T21:36:42.014Z,52.63
2023-05-10T21:39:44.536Z,52.73
2023-05-10T21:42:49.708Z,52.74
2023-05-10T21:45:52.056Z,53.13
2023-05-10T21:48:54.413Z,53.32
2023-05-10T21:51:56.839Z,53.52
2023-05-10T21:54:59.162Z,53.72
2023-05-10T21:58:01.486Z,53.93
2023-05-10T22:01:03.903Z,54.28
2023-05-10T22:04:06.356Z,54.19
2023-05-10T22:07:08.724Z,53.85
2023-05-10T22:10:11.290Z,54.33
2023-05-10T22:13:13.625Z,54.24
2023-05-10T22:16:16.478Z,54.01
2023-05-10T22:19:19.007Z,54.49
2023-05-10T22:22:22.491Z,54.37
2023-05-10T22:25:24.816Z,54.55
2023-05-10T22:28:27.143Z,54.18
2023-05-10T22:31:29.617Z,54.25
2023-05-10T22:34:35.802Z,53.88
2023-05-10T22:37:38.116Z,53.82
2023-05-10T22:40:41.279Z,54.01
2023-05-10T22:43:44.925Z,53.79
2023-05-10T22:46:47.331Z,53.93
2023-05-10T22:49:49.699Z,53.79
2023-05-10T22:52:52.131Z,53.79
2023-05-10T22:55:54.517Z,53.47
2023-05-10T22:58:56.916Z,53.38
2023-05-10T23:01:59.264Z,53.16
2023-05-10T23:05:01.632Z,53.21
2023-05-10T23:08:04.039Z,53.02
2023-05-10T23:11:06.357Z,52.98
2023-05-10T23:14:08.652Z,53.12
2023-05-10T23:17:11.008Z,53.69
2023-05-10T23:20:13.435Z,53.47
2023-05-10T23:23:15.874Z,53.28
2023-05-10T23:26:18.206Z,53.37
2023-05-10T23:29:20.542Z,53.61
2023-05-10T23:32:23.189Z,53.38
2023-05-10T23:35:25.590Z,53.56
2023-05-10T23:38:27.925Z,53.47
2023-05-10T23:41:30.228Z,53.63
2023-05-10T23:44:32.525Z,53.49
2023-05-10T23:47:34.879Z,53.72
2023-05-10T23:50:37.238Z,54.13
2023-05-10T23:53:39.557Z,54.09
2023-05-10T23:56:42.028Z,53.58
2023-05-10T23:59:44.487Z,54.01
